Victor, California
Current Conditions -  °F | °C
As of 9:55 AM on Sunday 25 Jan 2015 (Local Time) from KSCK Reporting Station
Haze Haze  
Wind Chill: 42°   Ceiling: 200
Heat Index: 44°   Visibility: 2mi
Dew Point: 42°   Wind: 5mph
Humidity: 93%   Direction: 350°N
Pressure: 30.19"   Gusts: NA
Location:  38.14°N, 121.2°W
Report Text: KSCK 251755Z 35004KT 2SM BR OVC002 07/06 A3019 RMK AO2 SLP224 T00670056 10067 20061 53005
Loading
Personal Weather Stations






























Interactive Weather Map New forecast layout! Learn more

10-Day Weather Forecast

Advertisements
Track Severe Weather on mobile